createdAt,value
2023-01-13T00:01:21.074Z,100.00
2023-01-13T00:04:29.728Z,100.00
2023-01-13T00:07:38.579Z,100.00
2023-01-13T00:10:53.676Z,100.00
2023-01-13T00:14:08.724Z,100.00
2023-01-13T00:17:16.730Z,100.00
2023-01-13T00:20:31.714Z,100.00
2023-01-13T00:23:41.691Z,100.00
2023-01-13T00:26:56.714Z,100.00
2023-01-13T00:30:05.697Z,100.00
2023-01-13T00:33:20.706Z,100.00
2023-01-13T00:36:22.793Z,99.75
2023-01-13T00:39:44.712Z,99.27
2023-01-13T00:42:53.322Z,98.98
2023-01-13T00:46:08.760Z,98.92
2023-01-13T00:49:16.712Z,98.74
2023-01-13T00:52:25.675Z,98.53
2023-01-13T00:55:36.754Z,98.84
2023-01-13T00:58:46.877Z,98.75
2023-01-13T01:01:54.818Z,98.65
2023-01-13T01:05:03.468Z,98.52
2023-01-13T01:08:12.721Z,98.62
2023-01-13T01:11:30.742Z,98.48
2023-01-13T01:14:32.710Z,98.29
2023-01-13T01:17:47.748Z,98.20
2023-01-13T01:20:51.983Z,98.00
2023-01-13T01:24:08.736Z,97.67
2023-01-13T01:27:10.557Z,97.71
2023-01-13T01:30:25.731Z,97.79
2023-01-13T01:33:28.187Z,98.14
2023-01-13T01:36:42.747Z,98.07
2023-01-13T01:39:57.751Z,98.22
2023-01-13T01:43:19.499Z,97.83
2023-01-13T01:46:27.801Z,96.99
2023-01-13T01:49:37.921Z,96.72
2023-01-13T01:52:50.784Z,96.35
2023-01-13T01:56:00.405Z,96.58
2023-01-13T01:59:09.741Z,96.79
2023-01-13T02:02:18.655Z,96.31
2023-01-13T02:05:29.750Z,96.57
2023-01-13T02:08:40.923Z,96.67
2023-01-13T02:11:49.747Z,96.30
2023-01-13T02:15:19.762Z,96.30
2023-01-13T02:18:41.561Z,96.52
2023-01-13T02:22:23.786Z,96.49
2023-01-13T02:26:00.745Z,96.29
2023-01-13T02:29:23.983Z,96.35
2023-01-13T02:32:51.772Z,96.08
2023-01-13T02:36:10.264Z,95.74
2023-01-13T02:39:25.804Z,95.43
2023-01-13T02:42:45.519Z,95.42
2023-01-13T02:46:13.763Z,95.29
2023-01-13T02:49:31.196Z,95.17
2023-01-13T02:52:45.781Z,95.32
2023-01-13T02:56:03.754Z,95.33
2023-01-13T02:59:06.775Z,95.39
2023-01-13T03:02:25.831Z,95.45
2023-01-13T03:05:31.503Z,95.60
2023-01-13T03:08:59.828Z,95.83
2023-01-13T03:12:22.769Z,95.93
2023-01-13T03:15:43.456Z,95.84
2023-01-13T03:19:07.773Z,95.81
2023-01-13T03:22:54.824Z,96.11
2023-01-13T03:26:15.262Z,96.30
2023-01-13T03:29:28.808Z,96.87
2023-01-13T03:32:49.811Z,97.04
2023-01-13T03:36:04.792Z,96.75
2023-01-13T03:39:34.837Z,97.01
2023-01-13T03:42:52.780Z,97.29
2023-01-13T03:46:09.005Z,97.15
2023-01-13T03:49:22.821Z,97.20
2023-01-13T03:52:36.322Z,97.02
2023-01-13T03:55:50.886Z,96.67
2023-01-13T03:59:09.819Z,96.53
2023-01-13T04:02:19.650Z,96.41
2023-01-13T04:05:35.808Z,95.81
2023-01-13T04:08:54.546Z,96.07
2023-01-13T04:12:12.797Z,96.08
2023-01-13T04:15:30.857Z,96.26
2023-01-13T04:18:36.437Z,96.58
2023-01-13T04:21:50.844Z,96.75
2023-01-13T04:24:52.729Z,96.61
2023-01-13T04:28:07.913Z,96.55
2023-01-13T04:31:10.232Z,96.90
2023-01-13T04:34:26.381Z,96.83
2023-01-13T04:37:36.804Z,97.08
2023-01-13T04:40:58.834Z,96.99
2023-01-13T04:44:06.823Z,96.83
2023-01-13T04:47:21.874Z,97.03
2023-01-13T04:50:31.414Z,96.86
2023-01-13T04:53:39.888Z,97.03
2023-01-13T04:56:48.511Z,97.40
2023-01-13T05:00:02.848Z,96.81
2023-01-13T05:03:11.845Z,96.67
2023-01-13T05:06:20.577Z,96.70
2023-01-13T05:09:29.867Z,96.58
2023-01-13T05:12:38.434Z,96.69
2023-01-13T05:15:47.893Z,96.79
2023-01-13T05:18:56.733Z,96.83
2023-01-13T05:22:05.856Z,96.51
2023-01-13T05:25:20.853Z,96.88
2023-01-13T05:28:28.861Z,96.86
2023-01-13T05:31:43.907Z,96.75
2023-01-13T05:34:45.757Z,96.88
2023-01-13T05:38:02.951Z,96.86
2023-01-13T05:41:17.890Z,96.91
2023-01-13T05:44:32.864Z,97.12
2023-01-13T05:47:40.856Z,97.23
2023-01-13T05:50:49.875Z,96.96
2023-01-13T05:53:58.857Z,96.92
2023-01-13T05:57:13.891Z,96.73
2023-01-13T06:00:16.667Z,96.60
2023-01-13T06:03:32.887Z,96.80
2023-01-13T06:06:34.663Z,96.81
2023-01-13T06:09:49.885Z,97.16
2023-01-13T06:12:52.068Z,97.52
2023-01-13T06:16:06.935Z,97.82
2023-01-13T06:19:09.139Z,97.51
2023-01-13T06:22:29.920Z,97.59
2023-01-13T06:25:50.898Z,97.49
2023-01-13T06:29:05.896Z,97.05
2023-01-13T06:32:22.866Z,97.93
2023-01-13T06:35:34.782Z,98.21
2023-01-13T06:38:55.917Z,98.16
2023-01-13T06:42:04.628Z,97.30
2023-01-13T06:45:18.884Z,97.90
2023-01-13T06:48:31.194Z,98.00
2023-01-13T06:51:39.934Z,97.79
2023-01-13T06:54:54.892Z,97.53
2023-01-13T06:58:00.719Z,97.54
2023-01-13T07:01:16.116Z,97.47
2023-01-13T07:04:24.916Z,97.83
2023-01-13T07:07:33.654Z,97.84
2023-01-13T07:10:43.912Z,97.40
2023-01-13T07:13:59.041Z,97.54
2023-01-13T07:17:00.908Z,97.34
2023-01-13T07:20:16.913Z,96.58
2023-01-13T07:23:18.869Z,96.06
2023-01-13T07:26:33.967Z,96.35
2023-01-13T07:29:36.139Z,96.42
2023-01-13T07:32:50.919Z,94.73
2023-01-13T07:36:01.697Z,94.14
2023-01-13T07:39:16.929Z,94.21
2023-01-13T07:42:32.959Z,92.13
2023-01-13T07:45:48.007Z,91.02
2023-01-13T07:48:57.080Z,91.34
2023-01-13T07:52:11.918Z,91.84
2023-01-13T07:55:15.873Z,92.52
2023-01-13T07:58:32.014Z,92.85
2023-01-13T08:01:41.125Z,92.89
2023-01-13T08:04:51.092Z,92.88
2023-01-13T08:08:08.719Z,93.04
2023-01-13T08:11:18.135Z,93.28
2023-01-13T08:14:40.035Z,92.58
2023-01-13T08:17:42.526Z,92.33
2023-01-13T08:21:02.359Z,91.06
2023-01-13T08:24:13.587Z,92.29
2023-01-13T08:27:28.027Z,92.24
2023-01-13T08:30:37.986Z,87.77
2023-01-13T08:33:54.043Z,88.57
2023-01-13T08:36:55.903Z,89.90
2023-01-13T08:40:12.026Z,85.62
2023-01-13T08:43:32.047Z,85.17
2023-01-13T08:46:39.998Z,86.55
2023-01-13T08:49:49.220Z,88.86
2023-01-13T08:52:57.963Z,89.25
2023-01-13T08:56:08.104Z,90.96
2023-01-13T08:59:26.961Z,89.80
2023-01-13T09:02:37.082Z,89.89
2023-01-13T09:05:46.032Z,89.82
2023-01-13T09:08:54.752Z,87.56
2023-01-13T09:12:02.999Z,80.83
2023-01-13T09:15:18.970Z,82.70
2023-01-13T09:18:21.004Z,85.53
2023-01-13T09:21:35.999Z,84.48
2023-01-13T09:24:37.989Z,86.95
2023-01-13T09:27:52.979Z,89.04
2023-01-13T09:30:55.308Z,90.74
2023-01-13T09:34:12.018Z,89.29
2023-01-13T09:37:14.099Z,88.66
2023-01-13T09:40:39.838Z,87.95
2023-01-13T09:43:54.990Z,86.11
2023-01-13T09:47:16.042Z,87.84
2023-01-13T09:50:35.031Z,90.02
2023-01-13T09:53:57.032Z,91.40
2023-01-13T09:57:06.069Z,92.05
2023-01-13T10:00:25.108Z,91.42
2023-01-13T10:03:37.046Z,90.90
2023-01-13T10:06:52.150Z,91.33
2023-01-13T10:10:04.022Z,91.73
2023-01-13T10:13:28.011Z,92.08
2023-01-13T10:16:40.024Z,91.55
2023-01-13T10:20:03.049Z,90.94
2023-01-13T10:23:33.405Z,88.89
2023-01-13T10:27:09.965Z,87.69
2023-01-13T10:30:31.987Z,89.19
2023-01-13T10:33:47.284Z,90.25
2023-01-13T10:37:08.021Z,91.04
2023-01-13T10:40:23.335Z,89.28
2023-01-13T10:43:39.015Z,88.71
2023-01-13T10:47:01.012Z,89.32
2023-01-13T10:50:35.085Z,89.85
2023-01-13T10:53:56.149Z,91.00
2023-01-13T10:57:17.887Z,92.56
2023-01-13T11:00:37.972Z,92.90
2023-01-13T11:03:46.738Z,93.21
2023-01-13T11:06:54.997Z,91.79
2023-01-13T11:10:32.023Z,91.43
2023-01-13T11:13:39.859Z,89.65
2023-01-13T11:17:00.032Z,89.64
2023-01-13T11:20:24.059Z,88.51
2023-01-13T11:23:46.073Z,90.10
2023-01-13T11:27:08.138Z,92.86
2023-01-13T11:30:22.925Z,91.17
2023-01-13T11:33:48.036Z,89.10
2023-01-13T11:37:00.348Z,87.58
2023-01-13T11:40:26.035Z,89.02
2023-01-13T11:43:49.089Z,89.82
2023-01-13T11:46:52.921Z,91.18
2023-01-13T11:50:09.040Z,92.19
2023-01-13T11:53:39.052Z,92.97
2023-01-13T11:57:24.100Z,93.20
2023-01-13T12:00:43.026Z,93.25
2023-01-13T12:04:11.562Z,93.23
2023-01-13T12:07:28.077Z,92.50
2023-01-13T12:10:46.449Z,92.40
2023-01-13T12:14:23.102Z,92.25
2023-01-13T12:18:05.032Z,93.75
2023-01-13T12:21:19.924Z,95.10
2023-01-13T12:24:47.070Z,94.64
2023-01-13T12:28:07.118Z,94.75
2023-01-13T12:31:18.183Z,95.07
2023-01-13T12:34:50.053Z,95.53
2023-01-13T12:38:14.060Z,95.51
2023-01-13T12:41:44.922Z,95.49
2023-01-13T12:48:52.063Z,94.71
2023-01-13T12:52:15.354Z,94.23
2023-01-13T12:55:34.069Z,93.98
2023-01-13T12:58:36.213Z,94.15
2023-01-13T13:01:54.169Z,94.10
2023-01-13T13:04:59.501Z,94.21
2023-01-13T13:08:30.059Z,93.77
2023-01-13T13:11:46.097Z,93.25
2023-01-13T13:15:03.114Z,94.22
2023-01-13T13:18:29.100Z,93.49
2023-01-13T13:22:04.129Z,92.89
2023-01-13T13:25:21.557Z,92.33
2023-01-13T13:28:31.059Z,91.89
2023-01-13T13:31:59.856Z,91.74
2023-01-13T13:35:29.084Z,91.14
2023-01-13T13:39:14.178Z,91.32
2023-01-13T13:42:27.069Z,91.40
2023-01-13T13:45:42.130Z,92.97
2023-01-13T13:48:59.144Z,93.10
2023-01-13T13:52:33.682Z,93.08
2023-01-13T13:55:43.076Z,93.10
2023-01-13T13:58:59.106Z,93.73
2023-01-13T14:02:10.278Z,94.41
2023-01-13T14:05:30.159Z,94.00
2023-01-13T14:08:36.862Z,93.68
2023-01-13T14:12:06.051Z,93.01
2023-01-13T14:15:24.456Z,92.46
2023-01-13T14:18:53.056Z,92.61
2023-01-13T14:22:02.378Z,92.68
2023-01-13T14:25:34.070Z,93.11
2023-01-13T14:28:45.070Z,92.78
2023-01-13T14:31:54.669Z,92.51
2023-01-13T14:35:03.058Z,92.48
2023-01-13T14:38:23.056Z,92.47
2023-01-13T14:41:54.030Z,92.65
2023-01-13T14:45:03.399Z,92.99
2023-01-13T14:48:16.314Z,93.15
2023-01-13T14:51:27.964Z,93.49
2023-01-13T14:54:53.037Z,93.23
2023-01-13T14:58:21.572Z,93.23
2023-01-13T15:01:40.241Z,93.23
2023-01-13T15:04:49.098Z,93.97
2023-01-13T15:08:08.077Z,93.94
2023-01-13T15:11:29.094Z,94.06
2023-01-13T15:14:34.078Z,94.42
2023-01-13T15:17:49.093Z,94.70
2023-01-13T15:20:51.446Z,94.88
2023-01-13T15:24:06.071Z,94.86
2023-01-13T15:27:17.655Z,94.94
2023-01-13T15:30:34.036Z,95.25
2023-01-13T15:33:35.823Z,95.84
2023-01-13T15:36:51.115Z,96.71
2023-01-13T15:39:59.092Z,97.27
2023-01-13T15:43:18.036Z,97.58
2023-01-13T15:46:27.079Z,97.75
2023-01-13T15:49:51.131Z,97.90
2023-01-13T15:52:52.971Z,97.81
2023-01-13T15:56:09.065Z,98.30
2023-01-13T15:59:25.064Z,98.08
2023-01-13T16:02:40.158Z,97.64
2023-01-13T16:05:42.740Z,97.12
2023-01-13T16:08:57.174Z,96.91
2023-01-13T16:12:06.067Z,96.62
2023-01-13T16:15:23.116Z,96.45
2023-01-13T16:18:24.953Z,96.43
2023-01-13T16:21:40.132Z,96.33
2023-01-13T16:24:42.368Z,96.25
2023-01-13T16:27:59.141Z,96.64
2023-01-13T16:31:15.983Z,96.51
2023-01-13T16:34:31.192Z,97.12
2023-01-13T16:37:33.057Z,96.85
2023-01-13T16:40:51.155Z,97.02
2023-01-13T16:44:00.404Z,96.64
2023-01-13T16:47:21.172Z,96.39
2023-01-13T16:50:41.657Z,96.17
2023-01-13T16:53:58.208Z,96.15
2023-01-13T16:57:13.183Z,96.59
2023-01-13T17:00:15.918Z,96.01
2023-01-13T17:03:30.210Z,96.30
2023-01-13T17:06:50.177Z,96.01
2023-01-13T17:10:05.279Z,96.22
2023-01-13T17:13:15.926Z,95.76
2023-01-13T17:16:31.222Z,95.79
2023-01-13T17:19:39.154Z,95.62
2023-01-13T17:22:57.746Z,95.59
2023-01-13T17:26:06.183Z,95.19
2023-01-13T17:29:24.207Z,95.65
2023-01-13T17:32:33.197Z,95.40
2023-01-13T17:35:48.177Z,95.37
2023-01-13T17:38:50.645Z,94.77
2023-01-13T17:42:12.295Z,94.33
2023-01-13T17:45:27.278Z,93.87
2023-01-13T17:48:36.387Z,94.00
2023-01-13T17:51:45.197Z,93.82
2023-01-13T17:55:00.223Z,93.73
2023-01-13T17:58:02.204Z,93.80
2023-01-13T18:01:22.305Z,93.69
2023-01-13T18:04:25.884Z,93.48
2023-01-13T18:07:40.230Z,93.82
2023-01-13T18:10:49.213Z,93.88
2023-01-13T18:14:05.217Z,94.00
2023-01-13T18:17:07.304Z,93.65
2023-01-13T18:20:25.213Z,93.55
2023-01-13T18:23:27.035Z,93.43
2023-01-13T18:26:43.204Z,93.53
2023-01-13T18:29:47.087Z,93.56
2023-01-13T18:33:02.249Z,93.41
2023-01-13T18:36:08.214Z,93.88
2023-01-13T18:39:23.268Z,93.57
2023-01-13T18:42:38.200Z,93.34
2023-01-13T18:45:50.655Z,93.24
2023-01-13T18:48:59.239Z,93.20
2023-01-13T18:52:08.092Z,93.37
2023-01-13T18:55:16.216Z,93.18
2023-01-13T18:58:25.068Z,93.34
2023-01-13T19:01:34.398Z,92.70
2023-01-13T19:04:46.081Z,92.89
2023-01-13T19:07:54.235Z,92.93
2023-01-13T19:11:13.265Z,92.93
2023-01-13T19:14:22.227Z,93.02
2023-01-13T19:17:40.326Z,93.09
2023-01-13T19:20:46.031Z,93.11
2023-01-13T19:24:03.278Z,93.12
2023-01-13T19:27:05.759Z,92.92
2023-01-13T19:30:21.239Z,93.07
2023-01-13T19:33:32.653Z,92.94
2023-01-13T19:36:41.255Z,93.24
2023-01-13T19:39:57.231Z,93.29
2023-01-13T19:43:06.501Z,93.21
2023-01-13T19:46:21.314Z,93.08
2023-01-13T19:49:23.705Z,93.16
2023-01-13T19:52:39.261Z,92.84
2023-01-13T19:55:46.346Z,93.10
2023-01-13T19:59:01.295Z,92.95
2023-01-13T20:02:16.171Z,93.03
2023-01-13T20:05:27.311Z,92.89
2023-01-13T20:08:36.564Z,92.54
2023-01-13T20:11:45.269Z,92.51
2023-01-13T20:15:00.411Z,92.46
2023-01-13T20:18:09.248Z,93.10
2023-01-13T20:21:20.397Z,93.05
2023-01-13T20:24:29.281Z,93.21
2023-01-13T20:27:37.903Z,93.19
2023-01-13T20:30:47.296Z,93.69
2023-01-13T20:33:56.057Z,94.22
2023-01-13T20:37:04.263Z,94.54
2023-01-13T20:40:15.401Z,94.47
2023-01-13T20:43:24.281Z,94.75
2023-01-13T20:46:39.292Z,94.64
2023-01-13T20:49:41.328Z,95.11
2023-01-13T20:52:56.287Z,96.02
2023-01-13T20:55:58.263Z,96.27
2023-01-13T20:59:14.311Z,96.28
2023-01-13T21:02:23.189Z,95.58
2023-01-13T21:05:31.292Z,96.00
2023-01-13T21:08:46.313Z,95.78
2023-01-13T21:11:50.056Z,96.02
2023-01-13T21:15:04.332Z,97.05
2023-01-13T21:18:06.271Z,97.37
2023-01-13T21:21:21.308Z,97.74
2023-01-13T21:24:23.923Z,97.88
2023-01-13T21:27:39.340Z,97.53
2023-01-13T21:30:49.307Z,97.68
2023-01-13T21:33:58.431Z,98.13
2023-01-13T21:37:06.320Z,98.58
2023-01-13T21:40:22.382Z,98.87
2023-01-13T21:43:37.299Z,98.75
2023-01-13T21:46:52.329Z,98.37
2023-01-13T21:49:54.295Z,98.48
2023-01-13T21:53:09.311Z,99.32
2023-01-13T21:56:11.220Z,99.37
2023-01-13T21:59:26.343Z,99.94
2023-01-13T22:02:28.359Z,100.00
2023-01-13T22:05:44.295Z,100.00
2023-01-13T22:08:46.364Z,100.00
2023-01-13T22:12:01.310Z,100.00
2023-01-13T22:15:10.312Z,100.00
2023-01-13T22:18:25.310Z,100.00
2023-01-13T22:21:34.331Z,100.00
2023-01-13T22:24:50.334Z,100.00
2023-01-13T22:27:52.131Z,100.00
2023-01-13T22:31:08.309Z,100.00
2023-01-13T22:34:12.186Z,100.00
2023-01-13T22:37:27.363Z,100.00
2023-01-13T22:40:29.861Z,100.00
2023-01-13T22:43:51.340Z,100.00
2023-01-13T22:46:59.347Z,100.00
2023-01-13T22:50:15.320Z,99.71
2023-01-13T22:53:18.661Z,99.55
2023-01-13T22:56:33.418Z,100.00
2023-01-13T22:59:42.367Z,100.00
2023-01-13T23:02:51.035Z,99.74
2023-01-13T23:06:03.384Z,99.50
2023-01-13T23:09:11.967Z,99.81
2023-01-13T23:12:20.365Z,99.89
2023-01-13T23:15:36.380Z,100.00
2023-01-13T23:18:38.729Z,100.00
2023-01-13T23:21:54.395Z,100.00
2023-01-13T23:24:56.210Z,100.00
2023-01-13T23:28:11.435Z,100.00
2023-01-13T23:31:16.481Z,100.00
2023-01-13T23:34:31.363Z,100.00
2023-01-13T23:37:39.380Z,100.00
2023-01-13T23:40:54.416Z,100.00
2023-01-13T23:44:02.712Z,100.00
2023-01-13T23:47:17.407Z,100.00
2023-01-13T23:50:26.339Z,100.00
2023-01-13T23:53:40.099Z,100.00
2023-01-13T23:56:49.413Z,100.00
2023-01-13T23:59:58.004Z,100.00
